Time;durP1;ratioP1;P1;durP2;ratioP2;P2;SDS_P1;SDS_P2;PMS_P1;PMS_P2;Temp;Humidity;BMP_temperature;BMP_pressure;BME280_temperature;BME280_humidity;BME280_pressure;Samples;Min_cycle;Max_cycle;Signal;HPM_P1;HPM_P2
2022/04/18 00:02:10;;;;;;;2.63;1.60;;;21.00;48.60;;;;;;4935545;29;20484;-76
2022/04/18 00:04:36;;;;;;;2.28;1.70;;;21.00;49.10;;;;;;4935427;29;20031;-76
2022/04/18 00:07:05;;;;;;;2.55;1.70;;;21.00;48.60;;;;;;4936304;29;20491;-76
2022/04/18 00:09:33;;;;;;;2.23;1.80;;;21.00;48.50;;;;;;4935116;29;20032;-75
2022/04/18 00:11:59;;;;;;;2.40;1.75;;;21.00;48.50;;;;;;4936456;29;20054;-76
2022/04/18 00:14:24;;;;;;;2.53;1.55;;;21.00;48.50;;;;;;4936333;29;20484;-76
2022/04/18 00:16:50;;;;;;;2.35;1.67;;;21.00;48.50;;;;;;4936344;29;20030;-76
2022/04/18 00:19:16;;;;;;;3.58;1.63;;;21.00;48.50;;;;;;4935940;29;20111;-76
2022/04/18 00:21:42;;;;;;;3.10;1.70;;;21.00;48.40;;;;;;4936199;28;20069;-76
2022/04/18 00:24:10;;;;;;;1.85;1.48;;;21.00;48.50;;;;;;4936349;29;20032;-76
2022/04/18 00:26:39;;;;;;;2.97;1.70;;;21.00;48.50;;;;;;4936252;29;20032;-76
2022/04/18 00:29:06;;;;;;;2.25;1.48;;;21.00;48.50;;;;;;4935824;29;20028;-76
2022/04/18 00:31:32;;;;;;;2.40;1.73;;;21.00;48.50;;;;;;4934812;29;20041;-76
2022/04/18 00:33:57;;;;;;;1.98;1.60;;;21.00;48.50;;;;;;4934793;29;20036;-76
2022/04/18 00:36:23;;;;;;;2.47;1.65;;;21.00;48.50;;;;;;4934601;29;20031;-76
2022/04/18 00:38:49;;;;;;;2.17;1.52;;;21.00;48.50;;;;;;4935617;29;20492;-76
2022/04/18 00:41:14;;;;;;;2.28;1.55;;;21.00;49.10;;;;;;4935977;29;20143;-76
2022/04/18 00:43:43;;;;;;;3.67;1.60;;;21.00;48.50;;;;;;4934838;29;20327;-75
2022/04/18 00:46:10;;;;;;;2.00;1.60;;;21.00;48.50;;;;;;4934749;29;20032;-76
2022/04/18 00:48:35;;;;;;;2.10;1.50;;;21.00;48.50;;;;;;4934250;29;20366;-76
2022/04/18 00:51:06;;;;;;;2.42;1.77;;;21.00;48.50;;;;;;4934449;29;20131;-75
2022/04/18 00:53:34;;;;;;;2.28;1.75;;;21.00;48.50;;;;;;4934416;29;20031;-75
2022/04/18 00:56:00;;;;;;;2.53;1.90;;;21.00;48.50;;;;;;4934335;29;20089;-75
2022/04/18 00:58:26;;;;;;;2.72;1.80;;;21.00;48.50;;;;;;4933899;29;20035;-76
2022/04/18 01:00:53;;;;;;;2.05;1.50;;;21.00;48.50;;;;;;4903058;29;20127;-75
2022/04/18 01:03:20;;;;;;;3.03;1.80;;;21.00;48.50;;;;;;4934312;29;20055;-75
2022/04/18 01:05:50;;;;;;;2.17;1.63;;;21.00;48.40;;;;;;4919100;29;20038;-75
2022/04/18 01:08:16;;;;;;;2.50;1.75;;;21.00;48.50;;;;;;4933805;29;20028;-76
2022/04/18 01:10:44;;;;;;;3.58;1.70;;;21.00;48.50;;;;;;4918493;29;20054;-75
2022/04/18 01:13:10;;;;;;;2.33;1.52;;;21.00;48.50;;;;;;4934193;29;20035;-75
2022/04/18 01:15:52;;;;;;;2.15;1.73;;;21.00;48.50;;;;;;4917817;29;20484;-75
2022/04/18 01:18:39;;;;;;;2.65;1.80;;;21.00;48.50;;;;;;4934039;29;20036;-75
2022/04/18 01:21:32;;;;;;;2.30;1.63;;;21.00;48.40;;;;;;4935249;29;20321;-75
2022/04/18 01:29:57;;;;;;;1.88;1.60;;;21.00;48.40;;;;;;4918131;29;20039;-75
2022/04/18 01:32:23;;;;;;;1.80;1.38;;;21.00;48.40;;;;;;4917932;29;20135;-75
2022/04/18 01:34:49;;;;;;;1.75;1.45;;;21.00;48.30;;;;;;4918049;29;20036;-75
2022/04/18 01:37:15;;;;;;;2.45;1.55;;;21.00;48.40;;;;;;4917408;29;20548;-75
2022/04/18 01:39:41;;;;;;;2.50;1.65;;;21.00;48.40;;;;;;4933607;29;20127;-75
2022/04/18 01:42:07;;;;;;;2.35;1.65;;;21.00;48.30;;;;;;4933758;29;20051;-75
2022/04/18 01:44:33;;;;;;;3.00;1.70;;;21.00;48.30;;;;;;4933463;29;20031;-75
2022/04/18 01:46:58;;;;;;;3.08;1.98;;;21.00;48.40;;;;;;4933538;29;20028;-75
2022/04/18 01:49:25;;;;;;;2.08;1.50;;;21.00;48.40;;;;;;4933130;29;20123;-74
2022/04/18 01:51:50;;;;;;;2.75;1.77;;;21.00;48.40;;;;;;4933630;29;20102;-75
2022/04/18 01:54:17;;;;;;;2.45;1.80;;;21.00;48.30;;;;;;4933375;29;20051;-75
2022/04/18 01:56:43;;;;;;;2.22;1.60;;;21.00;48.30;;;;;;4933219;29;20079;-75
2022/04/18 01:59:09;;;;;;;2.17;1.67;;;21.00;48.20;;;;;;4932961;29;20020;-75
2022/04/18 02:01:35;;;;;;;2.88;1.65;;;21.00;48.20;;;;;;4933304;29;20540;-75
2022/04/18 02:04:01;;;;;;;2.97;1.85;;;21.00;48.30;;;;;;4917489;29;20032;-75
2022/04/18 02:06:27;;;;;;;3.42;1.80;;;21.00;48.30;;;;;;4917320;29;20062;-75
2022/04/18 02:08:52;;;;;;;2.72;1.70;;;21.00;48.20;;;;;;4933078;29;20134;-75
2022/04/18 02:11:22;;;;;;;2.42;1.73;;;21.00;48.30;;;;;;4933113;29;20074;-75
2022/04/18 02:13:48;;;;;;;2.42;1.80;;;21.00;48.20;;;;;;4901768;29;20067;-75
2022/04/18 02:16:14;;;;;;;3.00;1.95;;;21.00;48.30;;;;;;4917110;29;20062;-75
2022/04/18 02:18:44;;;;;;;2.10;1.90;;;20.90;48.20;;;;;;4932876;29;20039;-75
2022/04/18 02:21:12;;;;;;;2.50;1.80;;;21.00;48.30;;;;;;4933101;29;20027;-75
2022/04/18 02:23:39;;;;;;;2.55;1.90;;;21.00;48.20;;;;;;4933058;29;20027;-75
2022/04/18 02:26:04;;;;;;;2.30;1.73;;;21.00;48.30;;;;;;4932601;29;20047;-75
2022/04/18 02:28:31;;;;;;;2.20;1.70;;;21.00;48.20;;;;;;4932457;29;20244;-75
2022/04/18 02:31:04;;;;;;;2.63;1.80;;;21.00;48.20;;;;;;4916975;29;20566;-75
2022/04/18 02:33:30;;;;;;;2.50;1.73;;;21.00;48.20;;;;;;4932995;29;20046;-75
2022/04/18 02:35:56;;;;;;;2.17;1.52;;;21.00;48.20;;;;;;4932810;29;20036;-75
2022/04/18 02:38:24;;;;;;;2.85;1.80;;;21.00;48.20;;;;;;4932479;29;20032;-75
2022/04/18 02:40:50;;;;;;;3.25;1.95;;;21.00;48.30;;;;;;4932768;29;20386;-75
2022/04/18 02:43:16;;;;;;;2.50;1.70;;;21.00;48.20;;;;;;4932777;29;20024;-75
2022/04/18 02:45:50;;;;;;;3.08;1.80;;;21.00;48.20;;;;;;4932834;29;20114;-75
2022/04/18 02:48:23;;;;;;;3.13;2.10;;;21.00;48.10;;;;;;4933765;29;20106;-75
2022/04/18 02:50:52;;;;;;;3.00;1.90;;;21.00;48.20;;;;;;4917183;29;20084;-75
2022/04/18 02:53:23;;;;;;;3.63;2.03;;;21.00;48.10;;;;;;4932829;29;20267;-75
2022/04/18 02:55:54;;;;;;;2.63;1.80;;;21.00;48.10;;;;;;4932532;29;20036;-76
2022/04/18 02:58:20;;;;;;;2.22;1.70;;;20.90;48.20;;;;;;4932492;29;20035;-75
2022/04/18 03:00:46;;;;;;;2.50;1.90;;;21.00;48.10;;;;;;4916900;29;20065;-75
2022/04/18 03:03:12;;;;;;;2.67;1.90;;;21.00;48.20;;;;;;4901300;29;20059;-75
2022/04/18 03:05:38;;;;;;;2.72;1.63;;;21.00;48.10;;;;;;4916807;29;20091;-75
2022/04/18 03:08:05;;;;;;;3.38;1.85;;;21.00;48.20;;;;;;4932233;29;20043;-75
2022/04/18 03:13:20;;;;;;;2.87;2.00;;;21.00;48.20;;;;;;4932772;29;20118;-75
2022/04/18 03:15:46;;;;;;;3.08;1.85;;;21.00;48.10;;;;;;4932297;29;20118;-75
2022/04/18 03:18:12;;;;;;;2.58;1.92;;;21.00;48.20;;;;;;4916609;29;20024;-75
2022/04/18 03:20:38;;;;;;;2.90;2.00;;;20.90;48.10;;;;;;4916717;29;20027;-75
2022/04/18 03:23:04;;;;;;;3.30;1.88;;;21.00;48.10;;;;;;4933545;29;20024;-75
2022/04/18 03:25:51;;;;;;;2.97;1.83;;;20.90;48.10;;;;;;4932575;29;20033;-75
2022/04/18 03:28:18;;;;;;;2.38;1.70;;;20.90;48.10;;;;;;4916214;29;20028;-75
2022/04/18 03:30:44;;;;;;;2.10;1.55;;;21.00;48.10;;;;;;4932381;29;20027;-75
2022/04/18 03:33:10;;;;;;;2.22;1.70;;;20.90;48.00;;;;;;4932648;29;20031;-75
2022/04/18 03:35:36;;;;;;;2.10;1.80;;;21.00;48.10;;;;;;4932091;29;20552;-75
2022/04/18 03:40:46;;;;;;;2.58;1.83;;;21.00;48.20;;;;;;4935554;29;20028;-75
2022/04/18 03:43:12;;;;;;;3.83;1.92;;;21.00;48.10;;;;;;4935923;29;20034;-75
2022/04/18 03:45:38;;;;;;;2.85;1.95;;;20.90;48.00;;;;;;4935634;29;20032;-75
2022/04/18 03:48:04;;;;;;;2.25;1.75;;;20.90;48.00;;;;;;4935168;29;20056;-75
2022/04/18 03:50:31;;;;;;;2.85;1.65;;;21.00;48.10;;;;;;4920352;29;20106;-75
2022/04/18 03:52:57;;;;;;;2.28;1.70;;;20.90;47.90;;;;;;4919938;29;20451;-75
2022/04/18 03:55:34;;;;;;;2.35;2.00;;;20.90;48.00;;;;;;4935593;29;20103;-75
2022/04/18 03:58:09;;;;;;;2.92;1.85;;;20.90;48.00;;;;;;4935200;29;20078;-75
2022/04/18 04:00:35;;;;;;;1.95;1.70;;;21.00;48.00;;;;;;4936441;29;20512;-75
2022/04/18 04:03:02;;;;;;;2.00;1.73;;;20.90;47.90;;;;;;4935498;29;20032;-75
2022/04/18 04:05:37;;;;;;;3.55;2.10;;;21.00;48.00;;;;;;4935373;29;20028;-75
2022/04/18 04:08:04;;;;;;;3.03;2.00;;;21.00;48.00;;;;;;4934984;29;20043;-75
2022/04/18 04:10:32;;;;;;;3.05;2.03;;;21.00;48.00;;;;;;4935195;29;20035;-75
2022/04/18 04:12:59;;;;;;;3.17;1.95;;;21.00;48.00;;;;;;4935461;29;20042;-75
2022/04/18 04:15:45;;;;;;;2.63;1.83;;;20.90;47.90;;;;;;4936288;28;20480;-75
2022/04/18 04:18:18;;;;;;;2.40;1.95;;;20.90;47.90;;;;;;4918895;29;20444;-75
2022/04/18 04:20:44;;;;;;;2.55;1.70;;;21.00;48.00;;;;;;4935121;29;20111;-75
2022/04/18 04:23:11;;;;;;;2.75;1.90;;;21.00;48.00;;;;;;4919532;29;20028;-75
2022/04/18 04:26:01;;;;;;;2.28;1.80;;;20.90;47.90;;;;;;4935134;29;20028;-75
2022/04/18 04:28:42;;;;;;;3.00;2.00;;;20.90;47.90;;;;;;4934739;29;20122;-75
2022/04/18 04:31:08;;;;;;;3.15;2.38;;;20.90;48.00;;;;;;4934839;29;20072;-75
2022/04/18 04:33:34;;;;;;;3.03;2.05;;;20.90;47.90;;;;;;4934965;29;20110;-75
2022/04/18 04:36:03;;;;;;;3.63;2.03;;;20.90;47.90;;;;;;4918848;29;20197;-75
2022/04/18 04:38:29;;;;;;;2.53;1.80;;;20.90;47.90;;;;;;4918669;29;20396;-75
2022/04/18 04:40:57;;;;;;;2.42;1.92;;;21.00;48.00;;;;;;4934639;29;20112;-75
2022/04/18 04:43:38;;;;;;;2.50;1.88;;;20.90;47.90;;;;;;4934960;29;20028;-75
2022/04/18 04:46:06;;;;;;;2.38;1.90;;;20.90;47.90;;;;;;4935798;29;20032;-75
2022/04/18 04:48:39;;;;;;;2.75;2.08;;;20.90;47.90;;;;;;4919337;29;20043;-75
2022/04/18 04:51:12;;;;;;;3.20;2.20;;;20.90;47.80;;;;;;4919288;29;20045;-75
2022/04/18 04:53:39;;;;;;;3.05;2.20;;;20.90;47.90;;;;;;4934562;29;20040;-75
2022/04/18 04:56:05;;;;;;;2.90;2.10;;;20.90;47.80;;;;;;4934366;29;20516;-75
2022/04/18 04:58:35;;;;;;;3.08;2.03;;;20.90;47.80;;;;;;4934138;29;20028;-75
2022/04/18 05:01:03;;;;;;;3.58;2.13;;;20.90;47.80;;;;;;4934339;29;20032;-75
2022/04/18 05:03:33;;;;;;;3.05;2.00;;;20.90;47.80;;;;;;4934371;29;20023;-75
2022/04/18 05:05:59;;;;;;;3.25;2.20;;;21.00;47.90;;;;;;4934242;29;20114;-75
2022/04/18 05:08:41;;;;;;;3.58;2.05;;;21.00;47.80;;;;;;4933919;29;20046;-75
2022/04/18 05:11:08;;;;;;;2.50;1.90;;;21.00;47.80;;;;;;4933996;29;20091;-75
2022/04/18 05:13:44;;;;;;;3.10;2.20;;;20.90;47.70;;;;;;4934184;29;20282;-75
2022/04/18 05:16:11;;;;;;;2.42;1.80;;;20.90;47.80;;;;;;4934308;29;20075;-75
2022/04/18 05:18:50;;;;;;;5.20;2.00;;;20.90;47.70;;;;;;4933939;29;20031;-75
2022/04/18 05:21:17;;;;;;;4.05;2.50;;;20.90;47.70;;;;;;4918118;29;20267;-75
2022/04/18 05:23:43;;;;;;;2.78;1.88;;;21.00;47.70;;;;;;4918183;29;20035;-75
2022/04/18 05:26:11;;;;;;;2.42;2.10;;;21.00;47.70;;;;;;4918182;29;20043;-75
2022/04/18 05:28:39;;;;;;;3.33;2.30;;;21.00;47.80;;;;;;4933533;29;20115;-75
2022/04/18 05:31:07;;;;;;;2.42;1.95;;;20.90;47.70;;;;;;4918119;29;20038;-75
2022/04/18 05:33:38;;;;;;;3.00;2.13;;;20.90;47.70;;;;;;4933822;29;20058;-75
2022/04/18 05:36:27;;;;;;;3.53;2.20;;;21.00;48.30;;;;;;4933495;29;20035;-75
2022/04/18 05:38:53;;;;;;;3.20;1.90;;;21.00;47.80;;;;;;4917934;29;20028;-75
2022/04/18 05:41:30;;;;;;;3.78;2.17;;;20.90;48.30;;;;;;4903706;29;20028;-75
2022/04/18 05:43:56;;;;;;;3.40;2.20;;;21.00;47.70;;;;;;4933577;29;20491;-75
2022/04/18 05:46:27;;;;;;;3.92;2.20;;;21.00;47.70;;;;;;4933540;29;20484;-75
2022/04/18 05:48:55;;;;;;;3.50;2.28;;;21.00;47.70;;;;;;4933091;29;20103;-75
2022/04/18 05:51:21;;;;;;;2.95;2.20;;;21.00;47.70;;;;;;4917688;29;20066;-75
2022/04/18 05:53:47;;;;;;;3.28;2.25;;;21.00;47.70;;;;;;4917899;29;20114;-75
2022/04/18 05:56:39;;;;;;;3.78;2.22;;;21.00;47.60;;;;;;4931185;29;20079;-75
2022/04/18 05:59:15;;;;;;;3.35;2.15;;;20.90;47.60;;;;;;4918808;29;20036;-75
2022/04/18 06:02:02;;;;;;;2.67;2.00;;;21.00;47.60;;;;;;4933206;29;20079;-75
2022/04/18 06:04:32;;;;;;;2.90;2.10;;;21.00;47.70;;;;;;4933643;29;20336;-75
2022/04/18 06:07:17;;;;;;;3.08;2.03;;;20.90;47.50;;;;;;4933893;29;20160;-75
2022/04/18 06:09:49;;;;;;;2.83;2.10;;;21.00;47.70;;;;;;4933307;29;20042;-75
2022/04/18 06:12:20;;;;;;;2.90;2.30;;;21.00;47.60;;;;;;4933515;29;20036;-74
2022/04/18 06:14:47;;;;;;;3.00;2.33;;;21.00;47.60;;;;;;4933160;29;20039;-74
2022/04/18 06:17:13;;;;;;;3.00;2.17;;;21.00;47.60;;;;;;4932611;29;20119;-74
2022/04/18 06:19:39;;;;;;;3.17;2.22;;;21.00;47.60;;;;;;4933009;29;20028;-74
2022/04/18 06:22:06;;;;;;;2.72;2.17;;;21.00;47.60;;;;;;4917332;29;20095;-74
2022/04/18 06:24:32;;;;;;;3.20;2.13;;;21.00;47.60;;;;;;4933053;29;20221;-74
2022/04/18 06:27:04;;;;;;;2.47;1.85;;;21.00;47.70;;;;;;4932869;29;20032;-74
2022/04/18 06:29:33;;;;;;;3.30;2.30;;;21.00;47.70;;;;;;4933297;29;20412;-74
2022/04/18 06:32:01;;;;;;;4.45;2.45;;;21.00;47.70;;;;;;4932779;29;20445;-74
2022/04/18 06:34:28;;;;;;;3.15;2.10;;;21.00;47.80;;;;;;4933087;29;20083;-74
2022/04/18 06:36:57;;;;;;;3.25;2.30;;;21.00;47.90;;;;;;4932571;29;20028;-74
2022/04/18 06:39:37;;;;;;;3.50;2.42;;;21.00;47.90;;;;;;4933043;29;20477;-74
2022/04/18 06:42:25;;;;;;;3.55;2.40;;;21.10;48.10;;;;;;4932826;29;20056;-74
2022/04/18 06:44:54;;;;;;;2.95;2.17;;;21.00;47.90;;;;;;4932826;29;20115;-74
2022/04/18 06:47:20;;;;;;;3.92;2.42;;;21.10;48.00;;;;;;4932551;29;20436;-74
2022/04/18 06:49:57;;;;;;;2.88;2.10;;;21.00;48.00;;;;;;4934228;29;20031;-75
2022/04/18 06:52:49;;;;;;;3.25;2.00;;;21.10;48.10;;;;;;4934103;29;20038;-74
2022/04/18 06:56:58;;;;;;;3.15;2.20;;;21.10;48.00;;;;;;4932740;29;20031;-74
2022/04/18 06:58:13;;;;;;;3.40;2.30;;;21.10;48.00;;;;;;4932221;28;20032;-75
2022/04/18 07:00:39;;;;;;;3.55;2.10;;;21.10;48.10;;;;;;4932899;29;20032;-74
2022/04/18 07:03:04;;;;;;;3.15;2.28;;;21.10;48.00;;;;;;4916870;29;20028;-75
2022/04/18 07:05:30;;;;;;;3.95;2.15;;;21.10;48.20;;;;;;4932657;29;20678;-74
2022/04/18 07:07:56;;;;;;;3.08;2.10;;;21.10;48.10;;;;;;4931933;29;20035;-74
2022/04/18 07:10:21;;;;;;;3.17;2.08;;;21.10;48.20;;;;;;4932589;29;20032;-74
2022/04/18 07:12:47;;;;;;;2.90;1.88;;;21.10;48.20;;;;;;4933030;29;20024;-74
2022/04/18 07:15:13;;;;;;;3.38;2.10;;;21.10;48.20;;;;;;4936366;29;20083;-74
2022/04/18 07:17:40;;;;;;;4.20;2.50;;;21.20;48.30;;;;;;4904516;29;20032;-75
2022/04/18 07:20:09;;;;;;;3.43;2.23;;;21.20;48.30;;;;;;4920747;29;20501;-74
2022/04/18 07:22:39;;;;;;;3.65;2.28;;;21.20;48.30;;;;;;4936071;29;20548;-74
2022/04/18 07:25:08;;;;;;;3.45;2.22;;;21.20;48.20;;;;;;4936229;29;20035;-75
2022/04/18 07:27:36;;;;;;;3.33;2.25;;;21.20;48.30;;;;;;4935599;29;20067;-75
2022/04/18 07:30:04;;;;;;;4.38;2.30;;;21.20;48.30;;;;;;4936027;29;20067;-74
2022/04/18 07:32:37;;;;;;;3.45;2.10;;;21.20;48.30;;;;;;4936129;29;20114;-74
2022/04/18 07:35:09;;;;;;;3.28;2.25;;;21.20;48.30;;;;;;4935953;29;20031;-74
2022/04/18 07:38:48;;;;;;;3.10;2.22;;;21.30;48.30;;;;;;4935380;29;20094;-75
2022/04/18 07:40:29;;;;;;;3.00;1.92;;;21.30;48.40;;;;;;4935979;29;20102;-75
2022/04/18 07:42:57;;;;;;;3.30;2.25;;;21.30;48.30;;;;;;4935592;29;20040;-75
2022/04/18 07:45:23;;;;;;;3.50;2.17;;;21.30;48.30;;;;;;4935600;29;20053;-74
2022/04/18 07:47:52;;;;;;;2.85;2.00;;;21.30;48.30;;;;;;4919586;29;20043;-74
2022/04/18 07:50:18;;;;;;;3.40;2.17;;;21.30;48.30;;;;;;4920044;29;20440;-74
2022/04/18 07:52:44;;;;;;;3.08;2.28;;;21.30;48.40;;;;;;4920056;29;20035;-74
2022/04/18 07:55:11;;;;;;;3.03;2.10;;;21.30;48.40;;;;;;4935605;29;20035;-74
2022/04/18 07:57:38;;;;;;;3.45;2.10;;;21.30;48.40;;;;;;4934900;28;20040;-74
2022/04/18 08:00:14;;;;;;;3.50;2.40;;;21.30;48.40;;;;;;4921033;29;20028;-74
2022/04/18 08:02:40;;;;;;;3.35;2.38;;;21.30;48.40;;;;;;4936573;29;20058;-75
2022/04/18 08:05:13;;;;;;;2.80;2.40;;;21.30;48.40;;;;;;4935601;29;20302;-74
2022/04/18 08:07:45;;;;;;;3.25;2.30;;;21.30;48.50;;;;;;4934669;29;20095;-74
2022/04/18 08:10:12;;;;;;;3.20;2.10;;;21.30;48.40;;;;;;4919625;29;20440;-75
2022/04/18 08:12:38;;;;;;;3.40;2.22;;;21.30;48.40;;;;;;4935335;29;20504;-75
2022/04/18 08:15:23;;;;;;;3.15;2.20;;;21.30;48.50;;;;;;4936605;29;20032;-75
2022/04/18 08:17:48;;;;;;;3.33;2.38;;;21.30;48.50;;;;;;4934721;29;20024;-75
2022/04/18 08:20:22;;;;;;;3.70;1.92;;;21.30;48.40;;;;;;4919406;29;20441;-75
2022/04/18 08:22:47;;;;;;;3.33;2.33;;;21.30;48.50;;;;;;4935054;29;20031;-75
2022/04/18 08:25:32;;;;;;;3.03;2.10;;;21.30;48.50;;;;;;4935669;29;20465;-75
2022/04/18 08:28:16;;;;;;;4.63;2.40;;;21.30;48.50;;;;;;4935853;29;20024;-75
2022/04/18 08:30:44;;;;;;;3.30;2.28;;;21.30;48.50;;;;;;4919475;29;20490;-75
2022/04/18 08:33:29;;;;;;;3.33;2.30;;;21.30;48.50;;;;;;4934614;29;20111;-75
2022/04/18 08:35:59;;;;;;;3.50;2.35;;;21.30;48.50;;;;;;4935032;29;20028;-75
2022/04/18 08:38:25;;;;;;;3.00;2.15;;;21.30;48.50;;;;;;4935667;29;20028;-75
2022/04/18 08:41:21;;;;;;;3.42;2.30;;;21.40;48.60;;;;;;4935026;29;20079;-75
2022/04/18 08:43:49;;;;;;;3.08;2.13;;;21.40;48.60;;;;;;4935064;29;20035;-75
2022/04/18 08:46:17;;;;;;;3.17;2.30;;;21.40;48.50;;;;;;4934586;29;20028;-75
2022/04/18 08:54:13;;;;;;;3.75;2.20;;;21.40;48.50;;;;;;4934414;29;20499;-75
2022/04/18 08:56:40;;;;;;;3.13;2.13;;;21.40;48.60;;;;;;4934371;29;20162;-75
2022/04/18 08:59:05;;;;;;;3.92;2.60;;;21.40;48.70;;;;;;4934301;29;20070;-75
2022/04/18 09:01:31;;;;;;;3.75;2.20;;;21.40;48.70;;;;;;4918797;29;20035;-75
2022/04/18 09:04:20;;;;;;;3.10;2.20;;;21.40;48.70;;;;;;4935160;29;20040;-75
2022/04/18 09:06:48;;;;;;;3.30;2.20;;;21.40;48.70;;;;;;4933976;29;20066;-75
2022/04/18 09:09:29;;;;;;;3.03;2.20;;;21.40;48.70;;;;;;4935188;29;20027;-75
2022/04/18 09:12:22;;;;;;;3.75;2.30;;;21.40;48.80;;;;;;4934215;29;20031;-75
2022/04/18 09:15:09;;;;;;;3.53;2.40;;;21.40;48.80;;;;;;4920570;29;20039;-75
2022/04/18 09:17:36;;;;;;;3.70;2.28;;;21.40;48.80;;;;;;4917759;29;20046;-75
2022/04/18 09:20:21;;;;;;;4.13;2.50;;;21.40;48.80;;;;;;4935227;29;20528;-76
2022/04/18 09:22:51;;;;;;;4.25;2.15;;;21.40;48.90;;;;;;4934055;29;20456;-75
2022/04/18 09:25:20;;;;;;;3.45;1.92;;;21.40;48.80;;;;;;4934204;29;20115;-76
2022/04/18 09:27:56;;;;;;;3.40;2.10;;;21.40;48.90;;;;;;4933557;29;20123;-76
2022/04/18 09:30:30;;;;;;;3.22;2.30;;;21.40;48.80;;;;;;4934968;29;20511;-76
2022/04/18 09:33:07;;;;;;;3.58;2.25;;;21.40;48.90;;;;;;4933973;29;20042;-76
2022/04/18 09:35:51;;;;;;;4.70;2.40;;;21.40;48.90;;;;;;4934601;28;20039;-76
2022/04/18 09:38:18;;;;;;;3.53;2.38;;;21.40;48.90;;;;;;4933378;29;20051;-75
2022/04/18 09:40:56;;;;;;;3.15;2.40;;;21.40;48.90;;;;;;4934951;29;20111;-75
2022/04/18 09:43:37;;;;;;;3.40;2.33;;;21.40;48.90;;;;;;4933570;29;20028;-79
2022/04/18 09:46:03;;;;;;;3.15;2.08;;;21.40;48.80;;;;;;4933772;29;20186;-76
2022/04/18 09:48:33;;;;;;;3.50;2.30;;;21.40;48.90;;;;;;4917467;29;20403;-76
2022/04/18 09:50:59;;;;;;;3.47;2.20;;;21.40;48.90;;;;;;4933733;29;20095;-77
2022/04/18 09:53:31;;;;;;;3.30;2.15;;;21.40;48.80;;;;;;4933578;29;20053;-77
2022/04/18 09:55:57;;;;;;;2.92;2.10;;;21.40;48.90;;;;;;4934589;29;20070;-78
2022/04/18 09:58:24;;;;;;;3.28;2.10;;;21.40;48.80;;;;;;4934353;29;20040;-77
2022/04/18 10:00:50;;;;;;;3.13;1.98;;;21.40;48.80;;;;;;4934917;29;20059;-77
2022/04/18 10:03:17;;;;;;;3.20;2.28;;;21.40;48.90;;;;;;4933377;29;20043;-77
2022/04/18 10:05:42;;;;;;;3.03;2.05;;;21.40;48.90;;;;;;4934478;29;20137;-77
2022/04/18 10:08:08;;;;;;;3.22;2.13;;;21.40;48.80;;;;;;4954018;23;20655;-75
2022/04/18 10:10:36;;;;;;;3.03;2.00;;;21.40;48.90;;;;;;4952589;28;20027;-74
2022/04/18 10:13:05;;;;;;;3.67;2.30;;;21.40;48.80;;;;;;4952629;28;20030;-75
2022/04/18 10:15:31;;;;;;;4.13;2.50;;;21.40;48.70;;;;;;4952310;29;20031;-75
2022/04/18 10:18:02;;;;;;;4.13;2.40;;;21.40;48.80;;;;;;4940035;29;20477;-75
2022/04/18 10:21:05;;;;;;;3.60;2.20;;;21.40;48.90;;;;;;4934250;29;20039;-75
2022/04/18 10:23:46;;;;;;;3.42;2.47;;;21.40;48.80;;;;;;4933039;29;20520;-75
2022/04/18 10:26:43;;;;;;;3.08;1.90;;;21.40;48.80;;;;;;4933315;29;20036;-76
2022/04/18 10:29:14;;;;;;;4.05;2.28;;;21.40;48.80;;;;;;4916696;29;20070;-75
2022/04/18 10:31:42;;;;;;;3.47;2.38;;;21.40;48.80;;;;;;4934340;29;20038;-75
2022/04/18 10:34:11;;;;;;;4.00;2.67;;;21.40;48.70;;;;;;4934071;29;20225;-74
2022/04/18 10:36:45;;;;;;;3.00;2.00;;;21.40;48.70;;;;;;4934119;29;20115;-75
2022/04/18 10:39:11;;;;;;;3.38;2.00;;;21.40;48.80;;;;;;4933833;29;20392;-74
2022/04/18 10:41:40;;;;;;;2.92;2.03;;;21.40;48.70;;;;;;4917307;29;20119;-75
2022/04/18 10:44:16;;;;;;;2.95;2.30;;;21.40;48.70;;;;;;4932718;29;20465;-74
2022/04/18 10:46:49;;;;;;;3.63;2.10;;;21.40;48.70;;;;;;4934082;29;20404;-75
2022/04/18 10:49:20;;;;;;;3.60;2.40;;;21.40;48.70;;;;;;4936686;29;20063;-74
2022/04/18 10:51:48;;;;;;;2.92;1.98;;;21.40;48.70;;;;;;4938347;29;20485;-74
2022/04/18 10:54:15;;;;;;;3.70;2.40;;;21.40;48.60;;;;;;4936770;29;20028;-74
2022/04/18 10:56:57;;;;;;;2.95;2.05;;;21.40;49.30;;;;;;4937646;29;20424;-75
2022/04/18 10:59:29;;;;;;;3.13;2.25;;;21.40;48.70;;;;;;4937632;29;20091;-75
2022/04/18 11:01:57;;;;;;;2.83;2.10;;;21.40;48.70;;;;;;4937824;29;20024;-75
2022/04/18 11:04:25;;;;;;;3.72;2.30;;;21.40;48.60;;;;;;4936418;29;20028;-75
2022/04/18 11:06:56;;;;;;;3.42;2.25;;;21.40;48.60;;;;;;4937828;29;20385;-74
2022/04/18 11:09:23;;;;;;;2.78;2.08;;;21.40;48.70;;;;;;4937206;29;20035;-75
2022/04/18 11:12:05;;;;;;;3.58;2.15;;;21.40;48.60;;;;;;4936443;29;20288;-75
2022/04/18 11:14:37;;;;;;;4.35;2.55;;;21.40;48.60;;;;;;4920487;29;20059;-74
2022/04/18 11:17:05;;;;;;;3.25;2.35;;;21.40;48.60;;;;;;4936284;29;20032;-75
2022/04/18 11:19:32;;;;;;;3.35;2.10;;;21.40;48.70;;;;;;4937261;29;20059;-75
2022/04/18 11:21:58;;;;;;;3.08;2.15;;;21.40;48.70;;;;;;4937298;29;20045;-75
2022/04/18 11:24:35;;;;;;;3.00;2.08;;;21.40;48.70;;;;;;4936014;29;20028;-75
2022/04/18 11:27:01;;;;;;;3.15;2.10;;;21.40;48.70;;;;;;4937250;29;20039;-75
2022/04/18 11:29:29;;;;;;;3.80;2.40;;;21.40;48.60;;;;;;4936916;29;20036;-74
2022/04/18 11:31:55;;;;;;;4.03;2.35;;;21.40;48.70;;;;;;4937210;29;20042;-75
2022/04/18 11:34:25;;;;;;;3.92;2.30;;;21.40;48.70;;;;;;4937156;29;20119;-75
2022/04/18 11:36:55;;;;;;;3.05;2.10;;;21.40;48.70;;;;;;4937028;29;20035;-75
2022/04/18 11:39:21;;;;;;;3.85;2.38;;;21.40;48.70;;;;;;4936997;29;20028;-75
2022/04/18 11:41:47;;;;;;;2.97;2.17;;;21.40;48.70;;;;;;4935761;29;20034;-75
2022/04/18 11:44:17;;;;;;;3.42;2.22;;;21.40;48.70;;;;;;4935981;29;20023;-75
2022/04/18 11:46:42;;;;;;;3.85;2.35;;;21.40;48.70;;;;;;4936030;29;20158;-75
2022/04/18 11:49:08;;;;;;;3.55;2.30;;;21.40;48.60;;;;;;4935645;29;20130;-75
2022/04/18 11:51:41;;;;;;;3.97;2.20;;;21.40;48.70;;;;;;4936846;29;20035;-75
2022/04/18 11:54:07;;;;;;;4.00;2.53;;;21.40;49.30;;;;;;4936825;29;20031;-75
2022/04/18 11:56:33;;;;;;;4.43;2.20;;;21.40;48.60;;;;;;4936250;29;20030;-75
2022/04/18 11:59:05;;;;;;;2.70;2.13;;;21.40;48.70;;;;;;4935341;29;20099;-75
2022/04/18 12:07:03;;;;;;;4.13;2.50;;;21.40;48.60;;;;;;4936136;29;20023;-75
2022/04/18 12:09:30;;;;;;;3.15;2.20;;;21.30;48.60;;;;;;4936419;29;20039;-74
2022/04/18 12:11:58;;;;;;;3.33;2.22;;;21.40;48.60;;;;;;4935397;29;20484;-75
2022/04/18 12:14:29;;;;;;;3.22;2.10;;;21.40;48.60;;;;;;4936406;29;20032;-75
2022/04/18 12:16:59;;;;;;;3.55;2.33;;;21.40;48.60;;;;;;4936329;29;20031;-74
2022/04/18 12:19:27;;;;;;;3.72;2.45;;;21.40;48.60;;;;;;4936007;29;20074;-75
2022/04/18 12:21:54;;;;;;;3.42;2.17;;;21.40;48.60;;;;;;4935412;29;20035;-75
2022/04/18 12:24:20;;;;;;;3.83;2.40;;;21.30;48.50;;;;;;4934968;29;20024;-75
2022/04/18 12:26:51;;;;;;;2.95;2.13;;;21.40;48.60;;;;;;4935040;29;20247;-75
2022/04/18 12:29:19;;;;;;;3.25;2.28;;;21.30;48.60;;;;;;4935785;29;20060;-75
2022/04/18 12:31:45;;;;;;;4.45;2.50;;;21.40;48.60;;;;;;4935005;29;20119;-75
2022/04/18 12:34:21;;;;;;;3.58;2.40;;;21.30;48.50;;;;;;4936084;29;20144;-75
2022/04/18 12:37:01;;;;;;;3.40;2.17;;;21.40;48.60;;;;;;4934691;29;20024;-75
2022/04/18 12:39:27;;;;;;;;;;;21.30;48.60;;;;;;4919427;29;20031;-75
2022/04/18 12:42:11;;;;;;;3.53;2.20;;;21.40;48.50;;;;;;4935902;29;19911;-75
2022/04/18 12:44:39;;;;;;;3.03;2.17;;;21.30;48.50;;;;;;4935965;29;20028;-75
2022/04/18 12:47:18;;;;;;;4.03;2.30;;;21.30;48.50;;;;;;4934324;29;20034;-75
2022/04/18 12:50:07;;;;;;;4.10;2.07;;;21.30;48.60;;;;;;4934620;29;20028;-76
2022/04/18 12:52:33;;;;;;;3.80;2.13;;;21.30;48.50;;;;;;4935915;29;20027;-75
2022/04/18 12:55:05;;;;;;;2.83;2.10;;;21.30;48.50;;;;;;4935660;29;20031;-76
2022/04/18 12:57:32;;;;;;;3.28;2.30;;;21.30;48.60;;;;;;4918093;29;20042;-75
2022/04/18 13:00:14;;;;;;;3.08;1.85;;;21.30;48.60;;;;;;4935691;29;20448;-78
2022/04/18 13:03:07;;;;;;;3.13;2.17;;;21.30;48.60;;;;;;4934484;29;20067;-75
2022/04/18 13:05:41;;;;;;;3.22;2.20;;;21.30;49.20;;;;;;4931711;29;20039;-75
2022/04/18 13:08:08;;;;;;;3.97;2.30;;;21.30;48.50;;;;;;4933755;29;20035;-75
2022/04/18 13:10:36;;;;;;;3.58;2.03;;;21.30;48.60;;;;;;4934890;29;20046;-75
2022/04/18 13:13:02;;;;;;;2.72;2.10;;;21.30;48.60;;;;;;4934212;29;20042;-75
2022/04/18 13:15:28;;;;;;;3.35;2.20;;;21.30;48.50;;;;;;4918493;29;20039;-76
2022/04/18 13:18:07;;;;;;;3.03;2.03;;;21.30;48.60;;;;;;4933627;29;20095;-75
2022/04/18 13:20:33;;;;;;;3.00;1.98;;;21.30;48.60;;;;;;4935164;29;20028;-75
2022/04/18 13:23:01;;;;;;;4.15;2.47;;;21.30;48.60;;;;;;4935276;29;20039;-75
2022/04/18 13:25:27;;;;;;;3.40;2.20;;;21.30;48.50;;;;;;4935212;29;20035;-76
2022/04/18 13:27:54;;;;;;;2.95;1.98;;;21.40;48.50;;;;;;4933968;29;20048;-75